Aktualne dane pomiarowe

Uwaga, wersja testowa! Automatyczne pobieranie danych za pomocą narzędzi lub skryptów to umożliwiających jest zabronione.

Dane meteo z obszaru Polski uzyskane na podstawie depesz SYNOP pobieranych co godzinę z NWS. Najedź myszką na symbol przedstawiony w tabeli, aby uzyskać informacje co do jego znaczenia. Prosimy pamiętać, że to testowa wersja strony, która jeszcze nie jest ukończona. Stworzono również jest krótki FAQ dotyczący korzystania z tej podstrony Anomalie temperatury w chwili obecnej odniesione są do okresu referencyjnego 1951-2016. Okres ten będzie później zmieniony na 1981-2010. Kliknij ikonę aby pobrać plik CSV. Kliknij ikonę aby wygenerować mapę synoptyczną dla danego terminu.

Wybierz Datę:    

        

Tomaszów Mazowiecki (12466)

Dane terminowe dla wybranej stacji. Kliknij datę, aby otrzymać dane z tego terminu dla wszystkich stacji.

TemperaturaZachmurzenieWiatrCiśnienieOpadyPogoda
 Data t td wb tx tn tg rh  Nt Nl Cl Cm Ch ws wd g1 g2 wx mslp ppp ch 24h 12h t ww ww w1 w2  
2019-06-30 23:00:00 25.8 11.6 17.2--- 41---3wx---1011.4 990.5----------
2019-06-30 22:00:00 26.8 11.3 17.5--- 38---3wx---1011.3 990.5----------
2019-06-30 21:00:00 27.9 10.6 17.6--- 34---2wx---1011.4 990.7----------
2019-06-30 20:00:00 28.8 10.5 17.9--- 32---2wx---1011.5 990.8----------
2019-06-30 19:00:00 30.8 10.2 18.5--- 28---2wx---1011.0 990.5----------
2019-06-30 18:00:00 33.7 9.1 19.1--- 22---2wx---1010.9 990.6----------
2019-06-30 17:00:00 35.0 9.5 19.7--- 21---3wx---1011.1 990.9----------
2019-06-30 16:00:00 35.7 8.6 19.5--- 19---4wx---1011.6 991.4----------
2019-06-30 15:00:00 35.8 8.6 19.5--- 19---4wx---1012.1 991.9----------
2019-06-30 14:00:00 35.7 7.8 19.2--- 18---4wx9--1012.8 992.6----------
2019-06-30 13:00:00 34.8 7.8 18.9--- 19---4wx---1013.5 993.2----------
2019-06-30 12:00:00 34.1 8.6 19.0--- 21---4wx---1014.1 993.8----------
2019-06-30 11:00:00 32.9 9.7 19.0--- 24---4wx---1014.7 994.3----------
2019-06-30 10:00:00 31.8 9.9 18.8--- 26---4wx---1015.5 995.0----------
2019-06-30 09:00:00 30.0 9.6 18.0--- 28---4wx---1016.1 995.4----------
2019-06-30 08:00:00 28.8 10.0 17.7--- 31---4wx---1016.4 995.6----------
2019-06-30 07:00:00 26.2 10.8 17.0--- 38---3wx---1017.0 996.0----------
2019-06-30 06:00:00 22.9 11.0 15.8--- 47---1wx---1017.2 996.0----------
2019-06-30 05:00:00 19.8 10.3 14.1--- 54---3wx---1017.4 996.0----------
2019-06-30 04:00:00 17.2 9.6 12.6--- 61---1wx---1017.5 995.9----------
2019-06-30 03:00:00 16.2 9.2 12.0--- 63---2wx---1017.4 995.7----------
2019-06-30 02:00:00 16.1 9.1 11.9--- 63---2wx---1017.3 995.6----------
2019-06-30 01:00:00 17.0 9.0 12.2--- 59---3wx---1017.5 995.9----------
2019-06-30 00:00:00 17.4 8.6 12.2--- 56---2wx---1017.7 996.1----------
2019-06-29 23:00:00 18.4 8.1 12.5--- 51---3wx---1017.8 996.3----------
2019-06-29 22:00:00 18.2 7.9 12.3--- 51---2wx---1018.0 996.4----------
2019-06-29 21:00:00 18.3 7.7 12.2--- 50---2wx---1018.1 996.5----------
2019-06-29 20:00:00 20.4 8.1 13.4--- 45---2wx---1018.0 996.6----------
2019-06-29 19:00:00 23.1 7.3 14.2--- 36---1wx---1017.7 996.5----------
2019-06-29 18:00:00 25.9 7.0 15.3--- 30---2wx---1017.4 996.4----------
2019-06-29 17:00:00 27.2 5.5 15.2--- 25---6wx---1017.1 996.2----------
2019-06-29 16:00:00 27.6 5.9 15.5--- 25---6wx10--1017.2 996.3----------
2019-06-29 15:00:00 27.8 7.1 16.1--- 2710.0wx-wx5wx---1017.0 996.2 -1.7---------
2019-06-29 14:00:00 27.9 8.3 16.6--- 2910.0wx-wx4wx---1017.8 996.9 -1.7---------
2019-06-29 13:00:00 26.9 7.9 16.0--- 3010.0wx-wx6wx---1018.1 997.2 -1.8---------
2019-06-29 12:00:00 25.8 7.4 15.4--- 3110.0wx-wx4wx---1018.9 997.9 -1.3---------
2019-06-29 11:00:00 25.6 6.8 15.1--- 3010.0wxwxwxwxwx5wx---1019.9 998.8 -0.8---------
2019-06-29 10:00:00 24.2 5.6 14.0--- 3010.0wx-wxwx5wx---1020.2 999.0 -0.9---------
2019-06-29 09:00:00 23.3 5.7 13.7--- 3210.0wx-wxwx5wx---1020.6 999.4 -0.6---------
2019-06-29 08:00:00 22.5 5.9 13.4--- 3410.0wx-wx4wx---1020.9 999.6 -0.6---------
2019-06-29 07:00:00 20.8 5.2 12.4--- 3610.0wx-wx4wx---1021.3 999.9 -0.5---------
2019-06-29 06:00:00 18.1 6.0 11.4--- 4510.0wx-wx3wx---1021.71000.0 -0.2---------
2019-06-29 05:00:00 15.1 5.6 9.8--- 5310.0wx-wxwx2wx---1022.11000.2 0.0---------
2019-06-29 04:00:00 11.4 6.1 8.3--- 70---0wx---1022.61000.4----------
2019-06-29 03:00:00 9.0 4.6 6.4--- 74---1wx---1022.61000.2----------
2019-06-29 02:00:00 9.3 4.9 6.7--- 74---1wx---1022.61000.2----------
2019-06-29 01:00:00 10.4 4.8 7.2--- 68---1wx---1022.51000.2----------
2019-06-29 00:00:00 12.3 5.0 8.2--- 61---2wx---1022.41000.3----------
2.0 ms

 

Print Friendly, PDF & Email